AirNav   ProFlight Series 2 Aviation Headset
 
 535 users online  

DC06 MPD 2nd Heliport
Washington, District of Columbia, USA

GOING TO WASHINGTON?


FAA INFORMATION EFFECTIVE 16 JULY 2020

Location

FAA Identifier: DC06
Lat/Long: 38-56-04.3990N 077-04-27.9190W
38-56.073317N 077-04.465317W
38.9345553,-77.0744219
(estimated)
Elevation: 106 ft. / 32 m (estimated)
Variation: 09W (1985)
Time zone: UTC -4 (UTC -5 during Standard Time)
Zip code: 20016

Heliport Operations

Heliport use: Private use. Permission required prior to landing
Activation date: 06/1975
Control tower: no
ARTCC: WASHINGTON CENTER
FSS: LEESBURG FLIGHT SERVICE STATION
Attendance: UNATNDD
Wind indicator: yes
Segmented circle: yes
Lights: FOR PERIMETER LGTS CALL 202-724-4368.

Heliport Communications

WX ASOS at DCA (5 nm S): 132.65 (703-412-8140)
WX AWOS-3 at CGS (8 nm E): 121.225 (301-864-5497)
WX AWOS-3PT at GAI (15 nm N): 128.275 (301-977-2971)
WX AWOS-3 at FME (17 nm NE): 123.925
WX ASOS at IAD (18 nm W): PHONE 703-661-2990

Nearby radio navigation aids

VOR radial/distance  VOR name  Freq  Var
DCAr348/4.8WASHINGTON VOR/DME111.0009W
ADWr318/12.4ANDREWS VORTAC113.1010W
AMLr098/18.3ARMEL VOR/DME113.5008W
OTTr322/20.6NOTTINGHAM VORTAC113.7010W
BALr245/23.9BALTIMORE VORTAC115.1011W
FDKr162/(31.9)FREDERICK VOR109.0008W
EMIr196/33.9WESTMINSTER VORTAC117.9008W
BRVr029/38.2BROOKE VORTAC114.5009W

 
NDB name  Hdg/Dist  Freq  Var  ID
GEORGETOWN092/2.332309WGTN --. - -.
OXONN359/10.433211WDCA -.. -.-. .-
DAVEE015/16.522309WDAA -.. .- .-
ELLICOTT224/25.337111WFND ..-. -. -..

Heliport Services

Airframe service: NONE
Powerplant service: NONE

Runway Information

Helipad H1

Dimensions: 60 x 60 ft. / 18 x 18 m
Surface: concrete
ROOFTOP.
Runway edge lights: PERI
Latitude: 38-56.073317N
Longitude: 077-04.465317W
Elevation: 106.0 ft.
Traffic pattern: leftleft

Heliport Ownership and Management from official FAA records

Ownership: Publicly-owned
Owner: METROPOLITAN POLICE DEPT.
3320 IDAHO AVE, NW
WASHINGTON, DC 20016
Phone 202-282-0074
Manager: MS VIVAN ANDREWS
300 INDIANA AVE, NW
WASHINGTON, DC 20001
Phone 202-727-4368

Heliport Operational Statistics

Aircraft based on the field: 4
Helicopters: 4
    

Additional Remarks

FOR CD CTC POTOMAC APCH AT 866-599-3874.

Instrument Procedures

There are no published instrument procedures at DC06.

Some nearby airports with instrument procedures:

KDCA - Ronald Reagan Washington National Airport (5 nm S)
KCGS - College Park Airport (8 nm E)
KADW - Joint Base Andrews (12 nm SE)
KVKX - Potomac Airfield (12 nm SE)
W32 - Washington Executive Airport/Hyde Field (13 nm SE)
KDAA - Davison Army Airfield (14 nm S)
W00 - Freeway Airport (14 nm E)
KGAI - Montgomery County Airpark (15 nm N)
KFME - Tipton Airport (17 nm NE)
KIAD - Washington Dulles International Airport (18 nm W)
 
Loc | Ops | Rwys | IFR | FBO | Links
Com | Nav | Svcs | Stats | Notes
Area around DC06 (MPD 2nd Heliport)
 
Road maps at: MapQuest Bing Google
 
Aerial photo
No photo
 
Sectional chart

 
Airport distance calculator
Flying to MPD 2nd Heliport? Find the distance to fly.

From to DC06

Sunrise and sunset
Times for 10-Aug-2020
 Local
(UTC-4)
 Zulu
(UTC)
Morning civil twilight05:5009:50
Sunrise06:1910:19
Sunset20:0800:08
Evening civil twilight20:3700:37

Current date and time
Zulu (UTC)  10-Aug-2020 11:02:35
Local (UTC-4)  10-Aug-2020 07:02:35
 
METAR
KDCA 
5nm S 
101052Z 20003KT 8SM FEW012 24/23 A3007 RMK AO2 SLP184 T02440233
KCGS 
8nm E 
101055Z AUTO 00000KT 4SM CLR A3007 RMK AO1
KADW 
12nm SE 
101056Z AUTO 21004KT 10SM CLR 23/23 A3007 RMK AO2 SLP187 T02260226 $
KDAA 
14nm S 
100956Z AUTO 00000KT 10SM CLR 22/21 A3007 RMK AO2 SLP185 T02170212 $
KGAI 
15nm N 
101056Z AUTO 00000KT 4SM BR CLR 22/21 A3010 RMK AO2 SLP199 T02170211
KFME 
17nm NE 
101055Z AUTO 00000KT 3SM CLR 20/20 A3010 RMK AO1
KIAD 
18nm W 
101052Z 00000KT 8SM BCFG FEW003 22/22 A3008 RMK AO2 SLP181 T02220217
TAF
KDCA 
5nm S 
100846Z 1009/1112 20004KT P6SM FEW140 FM101000 VRB03KT P6SM SCT250 FM101900 17006KT P6SM FEW250 FM111100 18004KT P6SM SCT040
KADW 
12nm SE 
100900Z 1009/1115 18005KT 8000 BR FEW040 QNH3006INS TEMPO 1009/1012 3200 BR BECMG 1012/1013 20005KT 9999 NSW SKC QNH2999INS BECMG 1017/1018 14005KT 9999 FEW050 QNH2998INS TEMPO 1021/1024 VCTS FEW060CB TEMPO 1007/1011 4800 BR TX32/1018Z TN24/1009Z
KDAA 
14nm S 
100900Z 1009/1115 VRB06KT 4800 BR FEW050 QNH3006INS TEMPO 1009/1012 2400 BR BECMG 1013/1014 17008KT 9999 NSW SCT050 QNH3000INS TEMPO 1020/1023 VRB15G25KT 6000 -TSRA BKN050CB TX32/1020Z TN21/1011Z
KIAD 
18nm W 
100846Z 1009/1112 VRB03KT P6SM SKC FM101200 00000KT P6SM SCT250 FM111100 18004KT P6SM SCT100
NOTAMs
Click for the latest NOTAMs
NOTAMs are issued by the DoD/FAA and will open in a separate window not controlled by AirNav.

 

 
 

Would you like to see your business listed on this page?

 If your business provides an interesting product or service to pilots, flight crews, aircraft, or users of the MPD 2nd Heliport, you should consider listing it here.  To start the listing process, click on the button below
 
Add a business
 

Other Pages about MPD 2nd Heliport

Update a link
 
Copyright © AirNav, LLC. All rights reserved. Privacy Policy  Contact